EDW332 LSZH-LGKR
Flight info
| Callsign | EDW332 |
|---|---|
| Flight time | 1h 46m |
| Altitude | 37000 |
| Route | N0446F370 DEGES3W DEGES Z2 XEBIX L607 ELMEM N606 GIRIS DCT MONFA DCT SPL DCT VAKSU DCT RODON DCT LIMJA N732 PITAS PITAS2P |
| Aircraft | A320/M-SDE3FGHIRWY/LB1 |
Departure
| Time | 2026-05-05 13:37 |
|---|---|
| Airport | Zürich Airport (LSZH) |
Arrival
| Time | 2026-05-05 15:24 |
|---|---|
| Airport | Corfu Ioannis Kapodistrias International Airport (LGKR) |
| Time | Latitude | Longitude | Altitude | Speed | Heading |
|---|---|---|---|---|---|
| 2026-05-05 13:06 | 47.45163 | 8.55879 | 1416 ft | 0 kts | 186° |
| 2026-05-05 13:26 | 47.45186 | 8.55881 | 1406 ft | 4 kts | 179° |
| 2026-05-05 13:26 | 47.45212 | 8.55884 | 1411 ft | 4 kts | 206° |
| 2026-05-05 13:27 | 47.45232 | 8.55901 | 1412 ft | 4 kts | 221° |
| 2026-05-05 13:27 | 47.45247 | 8.55931 | 1413 ft | 4 kts | 256° |
| 2026-05-05 13:27 | 47.45249 | 8.55952 | 1410 ft | 0 kts | 276° |
| 2026-05-05 13:29 | 47.45249 | 8.55949 | 1409 ft | 2 kts | 276° |
| 2026-05-05 13:30 | 47.45253 | 8.55887 | 1411 ft | 8 kts | 276° |
| 2026-05-05 13:30 | 47.45259 | 8.55806 | 1408 ft | 8 kts | 276° |
| 2026-05-05 13:30 | 47.45265 | 8.55724 | 1406 ft | 8 kts | 276° |
| 2026-05-05 13:30 | 47.45271 | 8.55639 | 1406 ft | 8 kts | 276° |
| 2026-05-05 13:31 | 47.45279 | 8.55560 | 1406 ft | 8 kts | 285° |
| 2026-05-05 13:31 | 47.45316 | 8.55456 | 1407 ft | 15 kts | 300° |
| 2026-05-05 13:31 | 47.45412 | 8.55362 | 1401 ft | 18 kts | 335° |
| 2026-05-05 13:31 | 47.45536 | 8.55277 | 1403 ft | 21 kts | 335° |
| 2026-05-05 13:32 | 47.45641 | 8.55205 | 1402 ft | 10 kts | 339° |
| 2026-05-05 13:32 | 47.45682 | 8.55257 | 1399 ft | 7 kts | 84° |
| 2026-05-05 13:32 | 47.45678 | 8.55314 | 1403 ft | 4 kts | 97° |
| 2026-05-05 13:32 | 47.45676 | 8.55335 | 1407 ft | 0 kts | 97° |
| 2026-05-05 13:33 | 47.45674 | 8.55352 | 1406 ft | 0 kts | 97° |
| 2026-05-05 13:34 | 47.45641 | 8.55831 | 1410 ft | 18 kts | 96° |
| 2026-05-05 13:34 | 47.45628 | 8.56000 | 1410 ft | 15 kts | 96° |
| 2026-05-05 13:34 | 47.45618 | 8.56145 | 1415 ft | 14 kts | 96° |
| 2026-05-05 13:34 | 47.45607 | 8.56304 | 1413 ft | 17 kts | 96° |
| 2026-05-05 13:35 | 47.45593 | 8.56498 | 1414 ft | 20 kts | 96° |
| 2026-05-05 13:35 | 47.45580 | 8.56686 | 1418 ft | 17 kts | 96° |
| 2026-05-05 13:35 | 47.45569 | 8.56848 | 1420 ft | 15 kts | 96° |
| 2026-05-05 13:35 | 47.45562 | 8.56942 | 1420 ft | 5 kts | 96° |
| 2026-05-05 13:36 | 47.45567 | 8.56987 | 1421 ft | 4 kts | 66° |
| 2026-05-05 13:36 | 47.45600 | 8.57018 | 1424 ft | 7 kts | 13° |
| 2026-05-05 13:36 | 47.45663 | 8.56978 | 1424 ft | 15 kts | 298° |
| 2026-05-05 13:36 | 47.45685 | 8.56711 | 1420 ft | 52 kts | 276° |
| 2026-05-05 13:37 | 47.45748 | 8.55821 | 1410 ft | 120 kts | 276° |
| 2026-05-05 13:37 | 47.45852 | 8.54341 | 1533 ft | 157 kts | 275° |
| 2026-05-05 13:37 | 47.45961 | 8.52760 | 2298 ft | 154 kts | 275° |
| 2026-05-05 13:37 | 47.46072 | 8.51187 | 3064 ft | 154 kts | 275° |
| 2026-05-05 13:38 | 47.46191 | 8.49532 | 3434 ft | 174 kts | 275° |
| 2026-05-05 13:38 | 47.46129 | 8.47662 | 3636 ft | 197 kts | 250° |
| 2026-05-05 13:38 | 47.45384 | 8.45859 | 4039 ft | 210 kts | 237° |
| 2026-05-05 13:38 | 47.44866 | 8.44608 | 4495 ft | 213 kts | 241° |
| 2026-05-05 13:39 | 47.43916 | 8.42014 | 5370 ft | 217 kts | 242° |
| 2026-05-05 13:39 | 47.43216 | 8.40030 | 6146 ft | 219 kts | 242° |
| 2026-05-05 13:39 | 47.42699 | 8.38708 | 6689 ft | 221 kts | 231° |
| 2026-05-05 13:39 | 47.40956 | 8.37286 | 7726 ft | 227 kts | 184° |
| 2026-05-05 13:40 | 47.39898 | 8.37550 | 8191 ft | 234 kts | 159° |
| 2026-05-05 13:40 | 47.38673 | 8.39175 | 8865 ft | 248 kts | 121° |
| 2026-05-05 13:40 | 47.38318 | 8.41700 | 9521 ft | 262 kts | 89° |
| 2026-05-05 13:40 | 47.38691 | 8.44459 | 9822 ft | 288 kts | 75° |
| 2026-05-05 13:41 | 47.39310 | 8.47397 | 10071 ft | 312 kts | 74° |
| 2026-05-05 13:41 | 47.39993 | 8.50560 | 10288 ft | 335 kts | 74° |
| 2026-05-05 13:41 | 47.40717 | 8.53906 | 10503 ft | 359 kts | 74° |
| 2026-05-05 13:41 | 47.41490 | 8.57515 | 10815 ft | 375 kts | 74° |
| 2026-05-05 13:42 | 47.42275 | 8.61223 | 11460 ft | 381 kts | 74° |
| 2026-05-05 13:42 | 47.43072 | 8.64972 | 12184 ft | 385 kts | 74° |
| 2026-05-05 13:42 | 47.43875 | 8.68762 | 12893 ft | 388 kts | 74° |
| 2026-05-05 13:42 | 47.44683 | 8.72594 | 13594 ft | 392 kts | 74° |
| 2026-05-05 13:43 | 47.45504 | 8.76462 | 14227 ft | 396 kts | 74° |
| 2026-05-05 13:43 | 47.46276 | 8.80376 | 14884 ft | 396 kts | 81° |
| 2026-05-05 13:43 | 47.46387 | 8.84403 | 15559 ft | 393 kts | 100° |
| 2026-05-05 13:43 | 47.45857 | 8.88366 | 16180 ft | 394 kts | 105° |
| 2026-05-05 13:44 | 47.45368 | 8.92365 | 16818 ft | 398 kts | 100° |
| 2026-05-05 13:44 | 47.45008 | 8.96427 | 17488 ft | 399 kts | 100° |
| 2026-05-05 13:44 | 47.44638 | 9.00510 | 18114 ft | 402 kts | 100° |
| 2026-05-05 13:44 | 47.44253 | 9.04615 | 18676 ft | 405 kts | 101° |
| 2026-05-05 13:45 | 47.43862 | 9.08746 | 19209 ft | 408 kts | 101° |
| 2026-05-05 13:45 | 47.43458 | 9.12914 | 19745 ft | 411 kts | 101° |
| 2026-05-05 13:45 | 47.43049 | 9.17101 | 20272 ft | 413 kts | 101° |
| 2026-05-05 13:45 | 47.42635 | 9.21317 | 20768 ft | 416 kts | 101° |
| 2026-05-05 13:46 | 47.42219 | 9.25565 | 21260 ft | 419 kts | 101° |
| 2026-05-05 13:46 | 47.41801 | 9.29843 | 21743 ft | 423 kts | 101° |
| 2026-05-05 13:46 | 47.41376 | 9.34153 | 22232 ft | 425 kts | 101° |
| 2026-05-05 13:46 | 47.40949 | 9.38487 | 22705 ft | 428 kts | 101° |
| 2026-05-05 13:47 | 47.40519 | 9.42853 | 23214 ft | 431 kts | 102° |
| 2026-05-05 13:47 | 47.40079 | 9.47245 | 23641 ft | 434 kts | 102° |
| 2026-05-05 13:47 | 47.39634 | 9.51670 | 24055 ft | 437 kts | 102° |
| 2026-05-05 13:47 | 47.39191 | 9.56119 | 24471 ft | 439 kts | 102° |
| 2026-05-05 13:48 | 47.38744 | 9.60525 | 24831 ft | 441 kts | 102° |
| 2026-05-05 13:48 | 47.38289 | 9.65024 | 25150 ft | 445 kts | 102° |
| 2026-05-05 13:48 | 47.37829 | 9.69544 | 25491 ft | 448 kts | 102° |
| 2026-05-05 13:48 | 47.37357 | 9.74101 | 25788 ft | 449 kts | 102° |
| 2026-05-05 13:49 | 47.36895 | 9.78663 | 25862 ft | 449 kts | 102° |
| 2026-05-05 13:49 | 47.36438 | 9.83216 | 25851 ft | 449 kts | 102° |
| 2026-05-05 13:49 | 47.35968 | 9.87768 | 25855 ft | 448 kts | 102° |
| 2026-05-05 13:49 | 47.35493 | 9.92310 | 25855 ft | 449 kts | 102° |
| 2026-05-05 13:50 | 47.35016 | 9.96859 | 25847 ft | 449 kts | 102° |
| 2026-05-05 13:50 | 47.34537 | 10.01409 | 25827 ft | 449 kts | 102° |
| 2026-05-05 13:50 | 47.34065 | 10.05963 | 25847 ft | 449 kts | 103° |
| 2026-05-05 13:50 | 47.33582 | 10.10512 | 25854 ft | 450 kts | 103° |
| 2026-05-05 13:51 | 47.33096 | 10.15076 | 25844 ft | 451 kts | 103° |
| 2026-05-05 13:51 | 47.32611 | 10.19652 | 25836 ft | 450 kts | 103° |
| 2026-05-05 13:51 | 47.32125 | 10.24202 | 25842 ft | 450 kts | 103° |
| 2026-05-05 13:51 | 47.31633 | 10.28761 | 25844 ft | 450 kts | 103° |
| 2026-05-05 13:52 | 47.31142 | 10.33308 | 25829 ft | 450 kts | 103° |
| 2026-05-05 13:52 | 47.30650 | 10.37857 | 25832 ft | 449 kts | 103° |
| 2026-05-05 13:52 | 47.30161 | 10.42405 | 25814 ft | 449 kts | 103° |
| 2026-05-05 13:52 | 47.29576 | 10.46906 | 25837 ft | 445 kts | 110° |
| 2026-05-05 13:53 | 47.28523 | 10.51153 | 25834 ft | 438 kts | 120° |
| 2026-05-05 13:53 | 47.27027 | 10.54972 | 25835 ft | 433 kts | 129° |
| 2026-05-05 13:53 | 47.25145 | 10.58399 | 25831 ft | 429 kts | 137° |
| 2026-05-05 13:53 | 47.22932 | 10.61304 | 25831 ft | 424 kts | 147° |
| 2026-05-05 13:54 | 47.20436 | 10.63564 | 25851 ft | 421 kts | 155° |
| 2026-05-05 13:54 | 47.17845 | 10.65567 | 25850 ft | 420 kts | 156° |
| 2026-05-05 13:54 | 47.15172 | 10.67238 | 25848 ft | 417 kts | 162° |
| 2026-05-05 13:54 | 47.12448 | 10.68712 | 25865 ft | 417 kts | 162° |
| 2026-05-05 13:55 | 47.09731 | 10.70196 | 25868 ft | 417 kts | 162° |
| 2026-05-05 13:55 | 47.07003 | 10.71682 | 25863 ft | 418 kts | 162° |
| 2026-05-05 13:55 | 47.04277 | 10.73173 | 25865 ft | 419 kts | 162° |
| 2026-05-05 13:55 | 47.01545 | 10.74682 | 25895 ft | 420 kts | 162° |
| 2026-05-05 13:56 | 46.98816 | 10.76231 | 25896 ft | 421 kts | 162° |
| 2026-05-05 13:56 | 46.96082 | 10.77777 | 25895 ft | 421 kts | 162° |
| 2026-05-05 13:56 | 46.93350 | 10.79325 | 25913 ft | 421 kts | 162° |
| 2026-05-05 13:56 | 46.90616 | 10.80865 | 25910 ft | 421 kts | 162° |
| 2026-05-05 13:57 | 46.87879 | 10.82396 | 25915 ft | 421 kts | 162° |
| 2026-05-05 13:57 | 46.85141 | 10.83933 | 25941 ft | 422 kts | 162° |
| 2026-05-05 13:57 | 46.82431 | 10.85464 | 25937 ft | 423 kts | 162° |
| 2026-05-05 13:57 | 46.79733 | 10.87229 | 25937 ft | 427 kts | 154° |
| 2026-05-05 13:58 | 46.77227 | 10.89590 | 25948 ft | 432 kts | 145° |
| 2026-05-05 13:58 | 46.75035 | 10.92624 | 25947 ft | 438 kts | 135° |
| 2026-05-05 13:58 | 46.73160 | 10.96148 | 25958 ft | 441 kts | 130° |
| 2026-05-05 13:58 | 46.71340 | 10.99741 | 25963 ft | 441 kts | 131° |
| 2026-05-05 13:59 | 46.67650 | 11.06893 | 25973 ft | 441 kts | 131° |
| 2026-05-05 13:59 | 46.65800 | 11.10466 | 25955 ft | 441 kts | 131° |
| 2026-05-05 14:00 | 46.62112 | 11.17587 | 25971 ft | 443 kts | 131° |
| 2026-05-05 14:00 | 46.60877 | 11.19959 | 25975 ft | 445 kts | 131° |
| 2026-05-05 14:00 | 46.58379 | 11.24770 | 25964 ft | 446 kts | 131° |
| 2026-05-05 14:00 | 46.56510 | 11.28364 | 26003 ft | 446 kts | 131° |
| 2026-05-05 14:01 | 46.54640 | 11.31961 | 25999 ft | 446 kts | 131° |
| 2026-05-05 14:01 | 46.52766 | 11.35548 | 25989 ft | 446 kts | 131° |
| 2026-05-05 14:01 | 46.50891 | 11.39124 | 26001 ft | 445 kts | 131° |
| 2026-05-05 14:01 | 46.49022 | 11.42689 | 25975 ft | 444 kts | 131° |
| 2026-05-05 14:02 | 46.47151 | 11.46264 | 25974 ft | 445 kts | 131° |
| 2026-05-05 14:02 | 46.45281 | 11.49833 | 25973 ft | 445 kts | 131° |
| 2026-05-05 14:02 | 46.43401 | 11.53404 | 26068 ft | 447 kts | 131° |
| 2026-05-05 14:02 | 46.41510 | 11.56989 | 26464 ft | 448 kts | 131° |
| 2026-05-05 14:03 | 46.39618 | 11.60595 | 26815 ft | 451 kts | 131° |
| 2026-05-05 14:03 | 46.37713 | 11.64215 | 27125 ft | 453 kts | 131° |
| 2026-05-05 14:03 | 46.35797 | 11.67853 | 27345 ft | 457 kts | 131° |
| 2026-05-05 14:03 | 46.33856 | 11.71516 | 27561 ft | 461 kts | 131° |
| 2026-05-05 14:04 | 46.31899 | 11.75209 | 27856 ft | 463 kts | 131° |
| 2026-05-05 14:04 | 46.29935 | 11.78913 | 28145 ft | 466 kts | 131° |
| 2026-05-05 14:04 | 46.27956 | 11.82636 | 28429 ft | 468 kts | 131° |
| 2026-05-05 14:04 | 46.25983 | 11.86326 | 28698 ft | 470 kts | 131° |
| 2026-05-05 14:05 | 46.23986 | 11.90071 | 28939 ft | 472 kts | 131° |
| 2026-05-05 14:05 | 46.21981 | 11.93833 | 29278 ft | 472 kts | 131° |
| 2026-05-05 14:05 | 46.19981 | 11.97579 | 29601 ft | 472 kts | 131° |
| 2026-05-05 14:05 | 46.17977 | 12.01333 | 29957 ft | 471 kts | 131° |
| 2026-05-05 14:06 | 46.15973 | 12.05070 | 30272 ft | 470 kts | 131° |
| 2026-05-05 14:06 | 46.13983 | 12.08796 | 30596 ft | 469 kts | 131° |
| 2026-05-05 14:06 | 46.11987 | 12.12514 | 30900 ft | 469 kts | 131° |
| 2026-05-05 14:06 | 46.09983 | 12.16239 | 31215 ft | 469 kts | 131° |
| 2026-05-05 14:07 | 46.07985 | 12.19950 | 31528 ft | 469 kts | 131° |
| 2026-05-05 14:07 | 46.05987 | 12.23665 | 31831 ft | 469 kts | 132° |
| 2026-05-05 14:07 | 46.03989 | 12.27367 | 32126 ft | 468 kts | 132° |
| 2026-05-05 14:07 | 46.01987 | 12.31076 | 32434 ft | 468 kts | 132° |
| 2026-05-05 14:08 | 45.99990 | 12.34773 | 32728 ft | 468 kts | 132° |
| 2026-05-05 14:08 | 45.97987 | 12.38470 | 32996 ft | 469 kts | 132° |
| 2026-05-05 14:08 | 45.95979 | 12.42171 | 33246 ft | 470 kts | 131° |
| 2026-05-05 14:08 | 45.93972 | 12.45885 | 33511 ft | 471 kts | 131° |
| 2026-05-05 14:09 | 45.91955 | 12.49590 | 33775 ft | 471 kts | 132° |
| 2026-05-05 14:09 | 45.91902 | 12.49687 | 33783 ft | 471 kts | 132° |
| 2026-05-05 14:09 | 45.90533 | 12.52196 | 33976 ft | 472 kts | 132° |
| 2026-05-05 14:10 | 45.88508 | 12.55907 | 34249 ft | 472 kts | 132° |
| 2026-05-05 14:10 | 45.86483 | 12.59607 | 34522 ft | 471 kts | 132° |
| 2026-05-05 14:10 | 45.84469 | 12.63309 | 34808 ft | 470 kts | 132° |
| 2026-05-05 14:10 | 45.82456 | 12.66993 | 35005 ft | 470 kts | 132° |
| 2026-05-05 14:11 | 45.78397 | 12.74376 | 35011 ft | 473 kts | 131° |
| 2026-05-05 14:11 | 45.74322 | 12.81784 | 35004 ft | 474 kts | 131° |
| 2026-05-05 14:12 | 45.70267 | 12.89136 | 35005 ft | 473 kts | 132° |
| 2026-05-05 14:12 | 45.66183 | 12.96520 | 35000 ft | 473 kts | 131° |
| 2026-05-05 14:13 | 45.62101 | 13.03903 | 34984 ft | 474 kts | 131° |
| 2026-05-05 14:13 | 45.57998 | 13.11292 | 34982 ft | 474 kts | 132° |
| 2026-05-05 14:14 | 45.53889 | 13.18669 | 34990 ft | 475 kts | 132° |
| 2026-05-05 14:14 | 45.49762 | 13.26043 | 35002 ft | 475 kts | 132° |
| 2026-05-05 14:15 | 45.45463 | 13.33165 | 34997 ft | 473 kts | 135° |
| 2026-05-05 14:15 | 45.41082 | 13.40167 | 35002 ft | 474 kts | 135° |
| 2026-05-05 14:16 | 45.36683 | 13.47166 | 35000 ft | 475 kts | 135° |
| 2026-05-05 14:16 | 45.32317 | 13.54128 | 35005 ft | 475 kts | 135° |
| 2026-05-05 14:17 | 45.27913 | 13.61124 | 35009 ft | 475 kts | 135° |
| 2026-05-05 14:17 | 45.23506 | 13.68108 | 34992 ft | 475 kts | 135° |
| 2026-05-05 14:18 | 45.19089 | 13.75098 | 34999 ft | 476 kts | 135° |
| 2026-05-05 14:18 | 45.14656 | 13.82077 | 35010 ft | 476 kts | 135° |
| 2026-05-05 14:19 | 45.10225 | 13.89048 | 35009 ft | 477 kts | 135° |
| 2026-05-05 14:19 | 45.05788 | 13.96013 | 35006 ft | 476 kts | 135° |
| 2026-05-05 14:20 | 45.01338 | 14.02963 | 35007 ft | 476 kts | 135° |
| 2026-05-05 14:20 | 44.96889 | 14.09902 | 35009 ft | 477 kts | 135° |
| 2026-05-05 14:21 | 44.92436 | 14.16857 | 35014 ft | 477 kts | 135° |
| 2026-05-05 14:21 | 44.87977 | 14.23774 | 34995 ft | 477 kts | 135° |
| 2026-05-05 14:22 | 44.83536 | 14.30654 | 35003 ft | 477 kts | 135° |
| 2026-05-05 14:22 | 44.79058 | 14.37572 | 35011 ft | 478 kts | 135° |
| 2026-05-05 14:23 | 44.74570 | 14.44495 | 35017 ft | 478 kts | 135° |
| 2026-05-05 14:23 | 44.70073 | 14.51386 | 35020 ft | 478 kts | 135° |
| 2026-05-05 14:24 | 44.65579 | 14.58287 | 35028 ft | 479 kts | 135° |
| 2026-05-05 14:24 | 44.61076 | 14.65173 | 35023 ft | 479 kts | 135° |
| 2026-05-05 14:25 | 44.56568 | 14.72052 | 35028 ft | 479 kts | 135° |
| 2026-05-05 14:25 | 44.52813 | 14.77789 | 35034 ft | 480 kts | 135° |
| 2026-05-05 14:26 | 44.48289 | 14.84654 | 35038 ft | 480 kts | 136° |
| 2026-05-05 14:26 | 44.43757 | 14.91523 | 35050 ft | 480 kts | 135° |
| 2026-05-05 14:27 | 44.39217 | 14.98387 | 35037 ft | 480 kts | 136° |
| 2026-05-05 14:27 | 44.34680 | 15.05235 | 35044 ft | 479 kts | 136° |
| 2026-05-05 14:28 | 44.30144 | 15.12063 | 35051 ft | 480 kts | 136° |
| 2026-05-05 14:28 | 44.25598 | 15.18883 | 35061 ft | 480 kts | 136° |
| 2026-05-05 14:29 | 44.21033 | 15.25706 | 35069 ft | 481 kts | 136° |
| 2026-05-05 14:29 | 44.16503 | 15.32483 | 35073 ft | 481 kts | 136° |
| 2026-05-05 14:30 | 44.11936 | 15.39302 | 35058 ft | 481 kts | 136° |
| 2026-05-05 14:30 | 44.07355 | 15.46107 | 35061 ft | 482 kts | 136° |
| 2026-05-05 14:31 | 44.02763 | 15.52905 | 35071 ft | 482 kts | 136° |
| 2026-05-05 14:31 | 43.98169 | 15.59704 | 35071 ft | 482 kts | 136° |
| 2026-05-05 14:32 | 43.93571 | 15.66488 | 35068 ft | 482 kts | 136° |
| 2026-05-05 14:32 | 43.88968 | 15.73271 | 35055 ft | 482 kts | 137° |
| 2026-05-05 14:33 | 43.84353 | 15.80030 | 35054 ft | 483 kts | 136° |
| 2026-05-05 14:33 | 43.79732 | 15.86807 | 35050 ft | 484 kts | 136° |
| 2026-05-05 14:34 | 43.75099 | 15.93565 | 35066 ft | 484 kts | 136° |
| 2026-05-05 14:34 | 43.70476 | 16.00320 | 35071 ft | 484 kts | 136° |
| 2026-05-05 14:35 | 43.65840 | 16.07058 | 35063 ft | 484 kts | 136° |
| 2026-05-05 14:35 | 43.61228 | 16.13748 | 35070 ft | 484 kts | 137° |
| 2026-05-05 14:36 | 43.56553 | 16.20514 | 35108 ft | 484 kts | 136° |
| 2026-05-05 14:36 | 43.51935 | 16.27183 | 35111 ft | 484 kts | 137° |
| 2026-05-05 14:37 | 43.47351 | 16.33993 | 35113 ft | 486 kts | 134° |
| 2026-05-05 14:37 | 43.42891 | 16.40979 | 35108 ft | 485 kts | 134° |
| 2026-05-05 14:38 | 43.38421 | 16.47929 | 35056 ft | 486 kts | 134° |
| 2026-05-05 14:38 | 43.33928 | 16.54877 | 35059 ft | 487 kts | 135° |
| 2026-05-05 14:39 | 43.29422 | 16.61827 | 35059 ft | 487 kts | 135° |
| 2026-05-05 14:39 | 43.24911 | 16.68779 | 35068 ft | 488 kts | 135° |
| 2026-05-05 14:40 | 43.20394 | 16.75711 | 35085 ft | 487 kts | 135° |
| 2026-05-05 14:40 | 43.15867 | 16.82627 | 35062 ft | 487 kts | 135° |
| 2026-05-05 14:41 | 43.11372 | 16.89508 | 35055 ft | 488 kts | 135° |
| 2026-05-05 14:41 | 43.06839 | 16.96438 | 35056 ft | 489 kts | 135° |
| 2026-05-05 14:42 | 43.02287 | 17.03340 | 35058 ft | 489 kts | 135° |
| 2026-05-05 14:42 | 42.97743 | 17.10256 | 35077 ft | 489 kts | 135° |
| 2026-05-05 14:43 | 42.93184 | 17.17134 | 35075 ft | 488 kts | 135° |
| 2026-05-05 14:43 | 42.88624 | 17.24012 | 35055 ft | 489 kts | 135° |
| 2026-05-05 14:44 | 42.84062 | 17.30908 | 35055 ft | 490 kts | 135° |
| 2026-05-05 14:44 | 42.79483 | 17.37808 | 35057 ft | 491 kts | 135° |
| 2026-05-05 14:45 | 42.74875 | 17.44679 | 35070 ft | 491 kts | 135° |
| 2026-05-05 14:45 | 42.70305 | 17.51522 | 35074 ft | 492 kts | 135° |
| 2026-05-05 14:46 | 42.65703 | 17.58405 | 35057 ft | 492 kts | 135° |
| 2026-05-05 14:46 | 42.61092 | 17.65289 | 35061 ft | 493 kts | 135° |
| 2026-05-05 14:47 | 42.56449 | 17.72166 | 35061 ft | 494 kts | 136° |
| 2026-05-05 14:47 | 42.51804 | 17.79052 | 35074 ft | 495 kts | 136° |
| 2026-05-05 14:48 | 42.47150 | 17.85941 | 35070 ft | 496 kts | 136° |
| 2026-05-05 14:48 | 42.42481 | 17.92822 | 35077 ft | 496 kts | 136° |
| 2026-05-05 14:49 | 42.37805 | 17.99707 | 35064 ft | 497 kts | 136° |
| 2026-05-05 14:49 | 42.33117 | 18.06594 | 35075 ft | 498 kts | 136° |
| 2026-05-05 14:50 | 42.28412 | 18.13463 | 35073 ft | 499 kts | 136° |
| 2026-05-05 14:50 | 42.23736 | 18.20301 | 35077 ft | 499 kts | 136° |
| 2026-05-05 14:51 | 42.19016 | 18.27180 | 35073 ft | 500 kts | 136° |
| 2026-05-05 14:51 | 42.14295 | 18.34051 | 35076 ft | 500 kts | 136° |
| 2026-05-05 14:52 | 42.09549 | 18.40913 | 35064 ft | 500 kts | 136° |
| 2026-05-05 14:52 | 42.04800 | 18.47777 | 35064 ft | 502 kts | 136° |
| 2026-05-05 14:53 | 41.99844 | 18.54370 | 35062 ft | 498 kts | 146° |
| 2026-05-05 14:53 | 41.94357 | 18.60055 | 35069 ft | 498 kts | 147° |
| 2026-05-05 14:54 | 41.88872 | 18.65753 | 35049 ft | 499 kts | 147° |
| 2026-05-05 14:54 | 41.83368 | 18.71446 | 35061 ft | 500 kts | 147° |
| 2026-05-05 14:55 | 41.77884 | 18.77108 | 35068 ft | 501 kts | 147° |
| 2026-05-05 14:55 | 41.72354 | 18.82808 | 35077 ft | 502 kts | 147° |
| 2026-05-05 14:56 | 41.66813 | 18.88508 | 35076 ft | 503 kts | 147° |
| 2026-05-05 14:56 | 41.61258 | 18.94211 | 35064 ft | 504 kts | 147° |
| 2026-05-05 14:57 | 41.55688 | 18.99923 | 35071 ft | 505 kts | 147° |
| 2026-05-05 14:57 | 41.50100 | 19.05629 | 35076 ft | 506 kts | 147° |
| 2026-05-05 14:58 | 41.44266 | 19.10722 | 35073 ft | 496 kts | 161° |
| 2026-05-05 14:58 | 41.37851 | 19.13928 | 35072 ft | 492 kts | 166° |
| 2026-05-05 14:59 | 41.31394 | 19.17056 | 35066 ft | 494 kts | 166° |
| 2026-05-05 14:59 | 41.24927 | 19.20207 | 35068 ft | 495 kts | 166° |
| 2026-05-05 15:00 | 41.19549 | 19.22831 | 35071 ft | 496 kts | 166° |
| 2026-05-05 15:00 | 41.11971 | 19.26508 | 35078 ft | 496 kts | 166° |
| 2026-05-05 15:01 | 41.05485 | 19.29640 | 35081 ft | 496 kts | 166° |
| 2026-05-05 15:01 | 40.98988 | 19.32780 | 35083 ft | 497 kts | 166° |
| 2026-05-05 15:02 | 40.92542 | 19.35890 | 35074 ft | 497 kts | 166° |
| 2026-05-05 15:02 | 40.86050 | 19.39017 | 35077 ft | 497 kts | 166° |
| 2026-05-05 15:03 | 40.79547 | 19.42145 | 35079 ft | 497 kts | 166° |
| 2026-05-05 15:03 | 40.73044 | 19.45256 | 34753 ft | 496 kts | 166° |
| 2026-05-05 15:04 | 40.69800 | 19.46791 | 34057 ft | 498 kts | 166° |
| 2026-05-05 15:04 | 40.66508 | 19.48369 | 32862 ft | 507 kts | 165° |
| 2026-05-05 15:04 | 40.63193 | 19.49964 | 32035 ft | 505 kts | 165° |
| 2026-05-05 15:04 | 40.59887 | 19.51546 | 31026 ft | 507 kts | 164° |
| 2026-05-05 15:05 | 40.53241 | 19.54694 | 28887 ft | 506 kts | 163° |
| 2026-05-05 15:05 | 40.49982 | 19.56242 | 28126 ft | 499 kts | 163° |
| 2026-05-05 15:05 | 40.46740 | 19.57779 | 27417 ft | 493 kts | 163° |
| 2026-05-05 15:06 | 40.43526 | 19.59297 | 26666 ft | 488 kts | 163° |
| 2026-05-05 15:06 | 40.40353 | 19.60814 | 25928 ft | 483 kts | 163° |
| 2026-05-05 15:06 | 40.37202 | 19.62306 | 25196 ft | 479 kts | 163° |
| 2026-05-05 15:06 | 40.34072 | 19.63775 | 24457 ft | 476 kts | 163° |
| 2026-05-05 15:07 | 40.30965 | 19.65246 | 23723 ft | 473 kts | 162° |
| 2026-05-05 15:07 | 40.27886 | 19.66695 | 22911 ft | 469 kts | 162° |
| 2026-05-05 15:07 | 40.24831 | 19.68133 | 22262 ft | 463 kts | 162° |
| 2026-05-05 15:07 | 40.21817 | 19.69554 | 21599 ft | 458 kts | 162° |
| 2026-05-05 15:08 | 40.18832 | 19.70945 | 20956 ft | 453 kts | 162° |
| 2026-05-05 15:08 | 40.15879 | 19.72333 | 20325 ft | 449 kts | 162° |
| 2026-05-05 15:08 | 40.12958 | 19.73714 | 19704 ft | 445 kts | 162° |
| 2026-05-05 15:08 | 40.10057 | 19.75083 | 19105 ft | 441 kts | 162° |
| 2026-05-05 15:09 | 40.07183 | 19.76430 | 18509 ft | 437 kts | 162° |
| 2026-05-05 15:09 | 40.04327 | 19.77758 | 17857 ft | 434 kts | 162° |
| 2026-05-05 15:09 | 40.01497 | 19.79078 | 17274 ft | 429 kts | 162° |
| 2026-05-05 15:09 | 39.98742 | 19.80359 | 16703 ft | 425 kts | 161° |
| 2026-05-05 15:10 | 39.95929 | 19.81666 | 16112 ft | 421 kts | 161° |
| 2026-05-05 15:10 | 39.93212 | 19.82934 | 15542 ft | 418 kts | 161° |
| 2026-05-05 15:10 | 39.90450 | 19.84230 | 14968 ft | 415 kts | 161° |
| 2026-05-05 15:10 | 39.87790 | 19.85517 | 14429 ft | 412 kts | 159° |
| 2026-05-05 15:11 | 39.85137 | 19.86881 | 13889 ft | 408 kts | 159° |
| 2026-05-05 15:11 | 39.82508 | 19.88218 | 13290 ft | 404 kts | 159° |
| 2026-05-05 15:11 | 39.79903 | 19.89518 | 12698 ft | 399 kts | 159° |
| 2026-05-05 15:11 | 39.77327 | 19.90820 | 12114 ft | 395 kts | 158° |
| 2026-05-05 15:12 | 39.74859 | 19.92279 | 11862 ft | 382 kts | 155° |
| 2026-05-05 15:12 | 39.72495 | 19.93712 | 11545 ft | 370 kts | 155° |
| 2026-05-05 15:12 | 39.70177 | 19.95119 | 11071 ft | 365 kts | 155° |
| 2026-05-05 15:12 | 39.67890 | 19.96507 | 10563 ft | 361 kts | 155° |
| 2026-05-05 15:13 | 39.65665 | 19.97859 | 10233 ft | 340 kts | 155° |
| 2026-05-05 15:13 | 39.63608 | 19.99109 | 10114 ft | 313 kts | 155° |
| 2026-05-05 15:13 | 39.61698 | 20.00270 | 9775 ft | 296 kts | 155° |
| 2026-05-05 15:13 | 39.59852 | 20.01391 | 9167 ft | 291 kts | 155° |
| 2026-05-05 15:14 | 39.58641 | 20.02124 | 8736 ft | 288 kts | 155° |
| 2026-05-05 15:14 | 39.56838 | 20.03215 | 8085 ft | 285 kts | 155° |
| 2026-05-05 15:14 | 39.55049 | 20.04297 | 7417 ft | 282 kts | 155° |
| 2026-05-05 15:14 | 39.53284 | 20.05364 | 6795 ft | 278 kts | 155° |
| 2026-05-05 15:15 | 39.51545 | 20.06413 | 6153 ft | 274 kts | 155° |
| 2026-05-05 15:15 | 39.49865 | 20.07437 | 5861 ft | 256 kts | 155° |
| 2026-05-05 15:15 | 39.48322 | 20.08387 | 5691 ft | 236 kts | 155° |
| 2026-05-05 15:15 | 39.46890 | 20.09274 | 5551 ft | 219 kts | 155° |
| 2026-05-05 15:16 | 39.45548 | 20.10102 | 5284 ft | 210 kts | 155° |
| 2026-05-05 15:16 | 39.44238 | 20.10917 | 4891 ft | 208 kts | 155° |
| 2026-05-05 15:16 | 39.42877 | 20.11461 | 4477 ft | 203 kts | 180° |
| 2026-05-05 15:16 | 39.41545 | 20.11150 | 4350 ft | 189 kts | 206° |
| 2026-05-05 15:17 | 39.40549 | 20.10145 | 4198 ft | 178 kts | 233° |
| 2026-05-05 15:17 | 39.40047 | 20.08749 | 4063 ft | 167 kts | 259° |
| 2026-05-05 15:17 | 39.40050 | 20.07299 | 3926 ft | 158 kts | 282° |
| 2026-05-05 15:17 | 39.40347 | 20.05959 | 3751 ft | 154 kts | 286° |
| 2026-05-05 15:18 | 39.40657 | 20.04647 | 3532 ft | 152 kts | 286° |
| 2026-05-05 15:18 | 39.40966 | 20.03337 | 3300 ft | 151 kts | 286° |
| 2026-05-05 15:18 | 39.41269 | 20.02039 | 3074 ft | 150 kts | 286° |
| 2026-05-05 15:18 | 39.41634 | 20.00775 | 2845 ft | 150 kts | 295° |
| 2026-05-05 15:19 | 39.42161 | 19.99632 | 2629 ft | 150 kts | 305° |
| 2026-05-05 15:19 | 39.42853 | 19.98588 | 2500 ft | 152 kts | 315° |
| 2026-05-05 15:19 | 39.43657 | 19.97724 | 2454 ft | 153 kts | 324° |
| 2026-05-05 15:19 | 39.44584 | 19.97038 | 2444 ft | 153 kts | 334° |
| 2026-05-05 15:20 | 39.45585 | 19.96563 | 2440 ft | 154 kts | 341° |
| 2026-05-05 15:20 | 39.46615 | 19.96177 | 2434 ft | 155 kts | 342° |
| 2026-05-05 15:20 | 39.47674 | 19.95784 | 2129 ft | 163 kts | 342° |
| 2026-05-05 15:20 | 39.48780 | 19.95373 | 1844 ft | 166 kts | 342° |
| 2026-05-05 15:21 | 39.49886 | 19.94966 | 1604 ft | 163 kts | 341° |
| 2026-05-05 15:21 | 39.50927 | 19.94582 | 1648 ft | 149 kts | 341° |
| 2026-05-05 15:21 | 39.51918 | 19.94210 | 1505 ft | 146 kts | 340° |
| 2026-05-05 15:21 | 39.52890 | 19.93841 | 1317 ft | 146 kts | 340° |
| 2026-05-05 15:22 | 39.53849 | 19.93478 | 1117 ft | 145 kts | 341° |
| 2026-05-05 15:22 | 39.54815 | 19.93114 | 941 ft | 145 kts | 341° |
| 2026-05-05 15:22 | 39.55745 | 19.92634 | 742 ft | 144 kts | 335° |
| 2026-05-05 15:22 | 39.56695 | 19.92202 | 538 ft | 146 kts | 342° |
| 2026-05-05 15:23 | 39.57689 | 19.91890 | 367 ft | 148 kts | 345° |
| 2026-05-05 15:23 | 39.58699 | 19.91611 | 182 ft | 147 kts | 345° |
| 2026-05-05 15:23 | 39.59690 | 19.91344 | 24 ft | 138 kts | 348° |
| 2026-05-05 15:23 | 39.60397 | 19.91160 | 21 ft | 61 kts | 348° |
| 2026-05-05 15:24 | 39.60664 | 19.91091 | 18 ft | 32 kts | 349° |
| 2026-05-05 15:24 | 39.60873 | 19.91037 | 22 ft | 30 kts | 348° |
| 2026-05-05 15:24 | 39.61005 | 19.91008 | 19 ft | 9 kts | 3° |
| 2026-05-05 15:24 | 39.61044 | 19.91058 | 19 ft | 8 kts | 65° |
| 2026-05-05 15:25 | 39.61048 | 19.91127 | 19 ft | 8 kts | 130° |
| 2026-05-05 15:25 | 39.60999 | 19.91140 | 19 ft | 7 kts | 172° |
| 2026-05-05 15:25 | 39.60953 | 19.91150 | 19 ft | 7 kts | 169° |
| 2026-05-05 15:25 | 39.60905 | 19.91164 | 20 ft | 8 kts | 168° |
| 2026-05-05 15:26 | 39.60832 | 19.91184 | 18 ft | 12 kts | 169° |
| 2026-05-05 15:26 | 39.60765 | 19.91200 | 18 ft | 7 kts | 169° |
| 2026-05-05 15:26 | 39.60745 | 19.91234 | 18 ft | 4 kts | 75° |
| 2026-05-05 15:26 | 39.60751 | 19.91270 | 18 ft | 4 kts | 78° |
| 2026-05-05 15:27 | 39.60756 | 19.91299 | 20 ft | 3 kts | 80° |
| 2026-05-05 15:27 | 39.60759 | 19.91323 | 18 ft | 3 kts | 79° |
| 2026-05-05 15:27 | 39.60760 | 19.91331 | 18 ft | 0 kts | 79° |